sensor_id;sensor_type;location;lat;lon;timestamp;pressure;altitude;pressure_sealevel;temperature;humidity
17873;BME280;36318;42.620;23.338;2023-04-03T00:01:58;92358.66;;;6.98;100.00
17873;BME280;36318;42.620;23.338;2023-04-03T00:04:25;92350.59;;;6.92;100.00
17873;BME280;36318;42.620;23.338;2023-04-03T00:06:53;92342.97;;;6.90;100.00
17873;BME280;36318;42.620;23.338;2023-04-03T00:09:19;92344.03;;;6.88;100.00
17873;BME280;36318;42.620;23.338;2023-04-03T00:11:46;92339.94;;;6.85;100.00
17873;BME280;36318;42.620;23.338;2023-04-03T00:14:12;92331.03;;;6.78;100.00
17873;BME280;36318;42.620;23.338;2023-04-03T00:16:39;92333.97;;;6.74;100.00
17873;BME280;36318;42.620;23.338;2023-04-03T00:19:06;92336.91;;;6.69;100.00
17873;BME280;36318;42.620;23.338;2023-04-03T00:21:32;92330.09;;;6.68;100.00
17873;BME280;36318;42.620;23.338;2023-04-03T00:24:00;92332.69;;;6.68;100.00
17873;BME280;36318;42.620;23.338;2023-04-03T00:26:27;92332.44;;;6.60;100.00
17873;BME280;36318;42.620;23.338;2023-04-03T00:28:54;92332.81;;;6.55;100.00
17873;BME280;36318;42.620;23.338;2023-04-03T00:31:21;92334.00;;;6.51;100.00
17873;BME280;36318;42.620;23.338;2023-04-03T00:33:47;92336.47;;;6.53;100.00
17873;BME280;36318;42.620;23.338;2023-04-03T00:36:14;92338.09;;;6.54;100.00
17873;BME280;36318;42.620;23.338;2023-04-03T00:38:41;92336.69;;;6.50;100.00
17873;BME280;36318;42.620;23.338;2023-04-03T00:41:09;92330.59;;;6.51;100.00
17873;BME280;36318;42.620;23.338;2023-04-03T00:43:35;92326.38;;;6.50;100.00
17873;BME280;36318;42.620;23.338;2023-04-03T00:46:02;92330.00;;;6.47;100.00
17873;BME280;36318;42.620;23.338;2023-04-03T00:48:30;92330.94;;;6.46;100.00
17873;BME280;36318;42.620;23.338;2023-04-03T00:50:57;92332.22;;;6.41;100.00
17873;BME280;36318;42.620;23.338;2023-04-03T00:53:25;92333.88;;;6.42;100.00
17873;BME280;36318;42.620;23.338;2023-04-03T00:55:52;92340.56;;;6.44;100.00
17873;BME280;36318;42.620;23.338;2023-04-03T00:58:24;92338.34;;;6.51;100.00
17873;BME280;36318;42.620;23.338;2023-04-03T01:00:54;92336.09;;;6.46;100.00
17873;BME280;36318;42.620;23.338;2023-04-03T01:03:22;92339.72;;;6.44;100.00
17873;BME280;36318;42.620;23.338;2023-04-03T01:05:49;92336.22;;;6.45;100.00
17873;BME280;36318;42.620;23.338;2023-04-03T01:08:16;92337.16;;;6.44;100.00
17873;BME280;36318;42.620;23.338;2023-04-03T01:10:43;92335.31;;;6.46;100.00
17873;BME280;36318;42.620;23.338;2023-04-03T01:15:55;92332.00;;;6.33;100.00
17873;BME280;36318;42.620;23.338;2023-04-03T01:18:22;92332.03;;;6.22;100.00
17873;BME280;36318;42.620;23.338;2023-04-03T01:20:58;92338.69;;;6.13;100.00
17873;BME280;36318;42.620;23.338;2023-04-03T01:23:37;92334.34;;;6.03;100.00
17873;BME280;36318;42.620;23.338;2023-04-03T01:26:06;92326.38;;;5.94;100.00
17873;BME280;36318;42.620;23.338;2023-04-03T01:28:35;92325.56;;;5.94;100.00
17873;BME280;36318;42.620;23.338;2023-04-03T01:31:05;92336.31;;;5.99;100.00
17873;BME280;36318;42.620;23.338;2023-04-03T01:33:37;92346.28;;;6.15;100.00
17873;BME280;36318;42.620;23.338;2023-04-03T01:36:04;92331.78;;;6.14;100.00
17873;BME280;36318;42.620;23.338;2023-04-03T01:38:31;92334.81;;;6.08;100.00
17873;BME280;36318;42.620;23.338;2023-04-03T01:40:57;92337.38;;;5.96;100.00
17873;BME280;36318;42.620;23.338;2023-04-03T01:43:24;92334.56;;;5.99;100.00
17873;BME280;36318;42.620;23.338;2023-04-03T01:45:50;92323.47;;;6.10;100.00
17873;BME280;36318;42.620;23.338;2023-04-03T01:48:19;92325.69;;;6.26;100.00
17873;BME280;36318;42.620;23.338;2023-04-03T01:50:47;92332.72;;;6.35;100.00
17873;BME280;36318;42.620;23.338;2023-04-03T01:53:14;92339.50;;;6.36;100.00
17873;BME280;36318;42.620;23.338;2023-04-03T01:55:40;92340.00;;;6.30;100.00
17873;BME280;36318;42.620;23.338;2023-04-03T01:58:07;92342.06;;;6.25;100.00
17873;BME280;36318;42.620;23.338;2023-04-03T02:00:33;92336.34;;;6.21;100.00
17873;BME280;36318;42.620;23.338;2023-04-03T02:03:01;92341.97;;;6.15;100.00
17873;BME280;36318;42.620;23.338;2023-04-03T02:05:27;92334.59;;;6.11;100.00
17873;BME280;36318;42.620;23.338;2023-04-03T02:07:55;92336.66;;;6.06;100.00
17873;BME280;36318;42.620;23.338;2023-04-03T02:10:22;92338.69;;;6.02;100.00
17873;BME280;36318;42.620;23.338;2023-04-03T02:12:49;92335.50;;;5.98;100.00
17873;BME280;36318;42.620;23.338;2023-04-03T02:15:16;92340.88;;;5.95;100.00
17873;BME280;36318;42.620;23.338;2023-04-03T02:17:42;92343.59;;;5.94;100.00
17873;BME280;36318;42.620;23.338;2023-04-03T02:20:09;92338.06;;;5.87;100.00
17873;BME280;36318;42.620;23.338;2023-04-03T02:22:36;92342.22;;;5.77;100.00
17873;BME280;36318;42.620;23.338;2023-04-03T02:25:04;92330.25;;;5.65;100.00
17873;BME280;36318;42.620;23.338;2023-04-03T02:27:31;92323.00;;;5.59;100.00
17873;BME280;36318;42.620;23.338;2023-04-03T02:29:57;92331.16;;;5.53;100.00
17873;BME280;36318;42.620;23.338;2023-04-03T02:32:24;92330.25;;;5.54;100.00
17873;BME280;36318;42.620;23.338;2023-04-03T02:34:51;92322.84;;;5.50;100.00
17873;BME280;36318;42.620;23.338;2023-04-03T02:37:17;92320.63;;;5.45;100.00
17873;BME280;36318;42.620;23.338;2023-04-03T02:39:44;92316.13;;;5.36;100.00
17873;BME280;36318;42.620;23.338;2023-04-03T02:42:12;92317.75;;;5.26;100.00
17873;BME280;36318;42.620;23.338;2023-04-03T02:44:38;92314.00;;;5.19;100.00
17873;BME280;36318;42.620;23.338;2023-04-03T02:47:05;92307.63;;;5.12;100.00
17873;BME280;36318;42.620;23.338;2023-04-03T02:49:31;92306.09;;;5.09;100.00
17873;BME280;36318;42.620;23.338;2023-04-03T02:51:58;92299.22;;;5.10;100.00
17873;BME280;36318;42.620;23.338;2023-04-03T02:54:24;92301.53;;;5.02;100.00
17873;BME280;36318;42.620;23.338;2023-04-03T02:56:53;92296.59;;;4.99;100.00
17873;BME280;36318;42.620;23.338;2023-04-03T02:59:21;92305.22;;;4.98;100.00
17873;BME280;36318;42.620;23.338;2023-04-03T03:01:48;92298.78;;;4.92;100.00
17873;BME280;36318;42.620;23.338;2023-04-03T03:04:15;92287.56;;;4.93;100.00
17873;BME280;36318;42.620;23.338;2023-04-03T03:06:41;92291.31;;;5.00;100.00
17873;BME280;36318;42.620;23.338;2023-04-03T03:09:08;92287.84;;;5.01;100.00
17873;BME280;36318;42.620;23.338;2023-04-03T03:11:34;92286.44;;;4.97;100.00
17873;BME280;36318;42.620;23.338;2023-04-03T03:14:01;92277.91;;;4.97;100.00
17873;BME280;36318;42.620;23.338;2023-04-03T03:16:29;92283.88;;;4.97;100.00
17873;BME280;36318;42.620;23.338;2023-04-03T03:18:55;92285.25;;;5.01;100.00
17873;BME280;36318;42.620;23.338;2023-04-03T03:21:22;92279.28;;;5.01;100.00
17873;BME280;36318;42.620;23.338;2023-04-03T03:23:48;92277.13;;;5.07;100.00
17873;BME280;36318;42.620;23.338;2023-04-03T03:26:15;92281.81;;;5.13;100.00
17873;BME280;36318;42.620;23.338;2023-04-03T03:28:41;92279.25;;;5.13;100.00
17873;BME280;36318;42.620;23.338;2023-04-03T03:31:08;92280.88;;;5.14;100.00
17873;BME280;36318;42.620;23.338;2023-04-03T03:33:37;92280.28;;;5.11;100.00
17873;BME280;36318;42.620;23.338;2023-04-03T03:36:03;92281.91;;;5.12;100.00
17873;BME280;36318;42.620;23.338;2023-04-03T03:38:30;92292.38;;;5.21;100.00
17873;BME280;36318;42.620;23.338;2023-04-03T03:40:57;92289.22;;;5.29;100.00
17873;BME280;36318;42.620;23.338;2023-04-03T03:43:23;92279.19;;;5.37;100.00
17873;BME280;36318;42.620;23.338;2023-04-03T03:45:50;92280.34;;;5.33;100.00
17873;BME280;36318;42.620;23.338;2023-04-03T03:48:17;92287.59;;;5.28;100.00
17873;BME280;36318;42.620;23.338;2023-04-03T03:50:45;92284.69;;;5.32;100.00
17873;BME280;36318;42.620;23.338;2023-04-03T03:53:12;92282.91;;;5.33;100.00
17873;BME280;36318;42.620;23.338;2023-04-03T03:55:38;92289.72;;;5.34;100.00
17873;BME280;36318;42.620;23.338;2023-04-03T03:58:05;92287.34;;;5.31;100.00
17873;BME280;36318;42.620;23.338;2023-04-03T04:00:31;92292.50;;;5.31;100.00
17873;BME280;36318;42.620;23.338;2023-04-03T04:02:58;92290.63;;;5.33;100.00
17873;BME280;36318;42.620;23.338;2023-04-03T04:05:25;92284.31;;;5.26;100.00
17873;BME280;36318;42.620;23.338;2023-04-03T04:07:53;92280.56;;;5.19;100.00
17873;BME280;36318;42.620;23.338;2023-04-03T04:10:20;92288.94;;;5.10;100.00
17873;BME280;36318;42.620;23.338;2023-04-03T04:12:46;92295.47;;;5.14;100.00
17873;BME280;36318;42.620;23.338;2023-04-03T04:15:14;92296.91;;;5.18;100.00
17873;BME280;36318;42.620;23.338;2023-04-03T04:17:40;92298.91;;;5.25;100.00
17873;BME280;36318;42.620;23.338;2023-04-03T04:20:07;92299.53;;;5.29;100.00
17873;BME280;36318;42.620;23.338;2023-04-03T04:22:34;92301.97;;;5.30;100.00
17873;BME280;36318;42.620;23.338;2023-04-03T04:25:02;92297.56;;;5.32;100.00
17873;BME280;36318;42.620;23.338;2023-04-03T04:27:29;92300.38;;;5.40;100.00
17873;BME280;36318;42.620;23.338;2023-04-03T04:29:55;92301.56;;;5.48;100.00
17873;BME280;36318;42.620;23.338;2023-04-03T04:32:22;92295.84;;;5.55;100.00
17873;BME280;36318;42.620;23.338;2023-04-03T04:34:48;92299.63;;;5.62;100.00
17873;BME280;36318;42.620;23.338;2023-04-03T04:37:15;92304.06;;;5.71;100.00
17873;BME280;36318;42.620;23.338;2023-04-03T04:39:41;92309.47;;;5.79;100.00
17873;BME280;36318;42.620;23.338;2023-04-03T04:42:09;92310.97;;;5.82;100.00
17873;BME280;36318;42.620;23.338;2023-04-03T04:44:38;92310.28;;;5.80;100.00
17873;BME280;36318;42.620;23.338;2023-04-03T04:47:04;92310.69;;;5.86;100.00
17873;BME280;36318;42.620;23.338;2023-04-03T04:49:31;92318.28;;;5.88;100.00
17873;BME280;36318;42.620;23.338;2023-04-03T04:51:57;92315.72;;;5.88;100.00
17873;BME280;36318;42.620;23.338;2023-04-03T04:54:24;92320.72;;;5.89;100.00
17873;BME280;36318;42.620;23.338;2023-04-03T04:56:50;92322.97;;;5.94;100.00
17873;BME280;36318;42.620;23.338;2023-04-03T04:59:19;92323.22;;;6.02;100.00
17873;BME280;36318;42.620;23.338;2023-04-03T05:01:45;92336.66;;;6.06;100.00
17873;BME280;36318;42.620;23.338;2023-04-03T05:04:12;92330.13;;;6.13;100.00
17873;BME280;36318;42.620;23.338;2023-04-03T05:06:38;92335.41;;;6.22;100.00
17873;BME280;36318;42.620;23.338;2023-04-03T05:09:05;92341.38;;;6.34;100.00
17873;BME280;36318;42.620;23.338;2023-04-03T05:11:31;92343.38;;;6.41;100.00
17873;BME280;36318;42.620;23.338;2023-04-03T05:13:58;92347.94;;;6.49;100.00
17873;BME280;36318;42.620;23.338;2023-04-03T05:16:26;92351.22;;;6.62;100.00
17873;BME280;36318;42.620;23.338;2023-04-03T05:18:52;92349.56;;;6.72;100.00
17873;BME280;36318;42.620;23.338;2023-04-03T05:21:19;92346.84;;;6.85;100.00
17873;BME280;36318;42.620;23.338;2023-04-03T05:23:48;92353.50;;;6.98;100.00
17873;BME280;36318;42.620;23.338;2023-04-03T05:26:15;92349.97;;;7.10;100.00
17873;BME280;36318;42.620;23.338;2023-04-03T05:28:41;92363.53;;;7.23;100.00
17873;BME280;36318;42.620;23.338;2023-04-03T05:31:08;92366.91;;;7.35;100.00
17873;BME280;36318;42.620;23.338;2023-04-03T05:33:36;92362.41;;;7.48;100.00
17873;BME280;36318;42.620;23.338;2023-04-03T05:36:03;92354.59;;;7.59;100.00
17873;BME280;36318;42.620;23.338;2023-04-03T05:38:29;92343.25;;;7.71;100.00
17873;BME280;36318;42.620;23.338;2023-04-03T05:40:56;92360.53;;;7.71;100.00
17873;BME280;36318;42.620;23.338;2023-04-03T05:43:23;92350.81;;;7.63;100.00
17873;BME280;36318;42.620;23.338;2023-04-03T05:45:50;92349.16;;;7.62;100.00
17873;BME280;36318;42.620;23.338;2023-04-03T05:48:16;92348.56;;;7.70;100.00
17873;BME280;36318;42.620;23.338;2023-04-03T05:50:45;92349.44;;;7.80;100.00
17873;BME280;36318;42.620;23.338;2023-04-03T05:53:12;92342.31;;;7.93;100.00
17873;BME280;36318;42.620;23.338;2023-04-03T05:55:42;92339.53;;;8.06;100.00
17873;BME280;36318;42.620;23.338;2023-04-03T05:58:08;92332.03;;;8.23;100.00
17873;BME280;36318;42.620;23.338;2023-04-03T06:00:35;92331.47;;;8.40;100.00
17873;BME280;36318;42.620;23.338;2023-04-03T06:03:01;92337.06;;;8.46;100.00
17873;BME280;36318;42.620;23.338;2023-04-03T06:05:28;92330.16;;;8.56;100.00
17873;BME280;36318;42.620;23.338;2023-04-03T06:07:56;92337.19;;;8.74;100.00
17873;BME280;36318;42.620;23.338;2023-04-03T06:10:23;92330.50;;;8.81;100.00
17873;BME280;36318;42.620;23.338;2023-04-03T06:12:49;92321.03;;;8.91;100.00
17873;BME280;36318;42.620;23.338;2023-04-03T06:15:16;92327.34;;;9.08;100.00
17873;BME280;36318;42.620;23.338;2023-04-03T06:17:43;92328.16;;;9.28;100.00
17873;BME280;36318;42.620;23.338;2023-04-03T06:20:10;92323.00;;;9.37;100.00
17873;BME280;36318;42.620;23.338;2023-04-03T06:22:37;92327.91;;;9.50;100.00
17873;BME280;36318;42.620;23.338;2023-04-03T06:25:05;92342.94;;;9.56;100.00
17873;BME280;36318;42.620;23.338;2023-04-03T06:27:32;92337.88;;;9.64;100.00
17873;BME280;36318;42.620;23.338;2023-04-03T06:29:59;92338.00;;;9.62;100.00
17873;BME280;36318;42.620;23.338;2023-04-03T06:32:25;92344.41;;;9.58;100.00
17873;BME280;36318;42.620;23.338;2023-04-03T06:34:52;92347.69;;;9.60;100.00
17873;BME280;36318;42.620;23.338;2023-04-03T06:37:21;92361.88;;;9.56;100.00
17873;BME280;36318;42.620;23.338;2023-04-03T06:39:51;92361.47;;;9.51;100.00
17873;BME280;36318;42.620;23.338;2023-04-03T06:42:19;92357.22;;;9.60;100.00
17873;BME280;36318;42.620;23.338;2023-04-03T06:44:45;92355.75;;;9.67;100.00
17873;BME280;36318;42.620;23.338;2023-04-03T06:47:12;92360.38;;;9.63;100.00
17873;BME280;36318;42.620;23.338;2023-04-03T06:49:39;92352.47;;;9.46;100.00
17873;BME280;36318;42.620;23.338;2023-04-03T06:52:06;92361.81;;;9.28;100.00
17873;BME280;36318;42.620;23.338;2023-04-03T06:54:33;92362.28;;;9.42;100.00
17873;BME280;36318;42.620;23.338;2023-04-03T06:57:00;92370.31;;;9.58;100.00
17873;BME280;36318;42.620;23.338;2023-04-03T06:59:27;92374.41;;;9.71;100.00
17873;BME280;36318;42.620;23.338;2023-04-03T07:01:54;92366.66;;;9.51;100.00
17873;BME280;36318;42.620;23.338;2023-04-03T07:04:21;92360.09;;;9.47;100.00
17873;BME280;36318;42.620;23.338;2023-04-03T07:06:47;92364.75;;;9.53;100.00
17873;BME280;36318;42.620;23.338;2023-04-03T07:09:14;92358.31;;;9.57;100.00
17873;BME280;36318;42.620;23.338;2023-04-03T07:11:41;92344.97;;;9.72;100.00
17873;BME280;36318;42.620;23.338;2023-04-03T07:14:07;92354.91;;;9.95;100.00
17873;BME280;36318;42.620;23.338;2023-04-03T07:16:35;92341.41;;;10.11;100.00
17873;BME280;36318;42.620;23.338;2023-04-03T07:19:02;92337.97;;;10.30;100.00
17873;BME280;36318;42.620;23.338;2023-04-03T07:21:28;92351.03;;;10.47;100.00
17873;BME280;36318;42.620;23.338;2023-04-03T07:23:55;92343.91;;;10.59;100.00
17873;BME280;36318;42.620;23.338;2023-04-03T07:26:23;92336.06;;;10.68;100.00
17873;BME280;36318;42.620;23.338;2023-04-03T07:28:50;92342.16;;;10.87;100.00
17873;BME280;36318;42.620;23.338;2023-04-03T07:31:17;92336.38;;;10.93;100.00
17873;BME280;36318;42.620;23.338;2023-04-03T07:33:45;92325.41;;;10.99;100.00
17873;BME280;36318;42.620;23.338;2023-04-03T07:38:40;92333.81;;;11.55;100.00
17873;BME280;36318;42.620;23.338;2023-04-03T07:41:06;92330.28;;;11.91;100.00
17873;BME280;36318;42.620;23.338;2023-04-03T07:43:33;92324.91;;;12.11;100.00
17873;BME280;36318;42.620;23.338;2023-04-03T07:46:00;92323.75;;;12.31;100.00
17873;BME280;36318;42.620;23.338;2023-04-03T07:48:26;92319.25;;;12.41;100.00
17873;BME280;36318;42.620;23.338;2023-04-03T07:50:58;92325.13;;;12.43;100.00
17873;BME280;36318;42.620;23.338;2023-04-03T07:53:25;92341.47;;;12.27;100.00
17873;BME280;36318;42.620;23.338;2023-04-03T07:55:51;92324.69;;;12.22;100.00
17873;BME280;36318;42.620;23.338;2023-04-03T07:58:20;92339.16;;;12.24;100.00
17873;BME280;36318;42.620;23.338;2023-04-03T08:00:47;92334.84;;;12.15;100.00
17873;BME280;36318;42.620;23.338;2023-04-03T08:03:14;92323.28;;;12.10;100.00
17873;BME280;36318;42.620;23.338;2023-04-03T08:05:42;92330.00;;;11.94;100.00
17873;BME280;36318;42.620;23.338;2023-04-03T08:08:11;92338.00;;;12.01;100.00
17873;BME280;36318;42.620;23.338;2023-04-03T08:10:38;92322.56;;;11.99;100.00
17873;BME280;36318;42.620;23.338;2023-04-03T08:13:05;92325.22;;;12.08;100.00
17873;BME280;36318;42.620;23.338;2023-04-03T08:15:31;92320.53;;;11.93;100.00
17873;BME280;36318;42.620;23.338;2023-04-03T08:17:58;92325.22;;;12.08;100.00
17873;BME280;36318;42.620;23.338;2023-04-03T08:20:30;92328.31;;;11.58;100.00
17873;BME280;36318;42.620;23.338;2023-04-03T08:22:57;92323.28;;;11.57;100.00
17873;BME280;36318;42.620;23.338;2023-04-03T08:25:25;92316.06;;;11.68;100.00
17873;BME280;36318;42.620;23.338;2023-04-03T08:27:51;92317.72;;;11.87;100.00
17873;BME280;36318;42.620;23.338;2023-04-03T08:30:18;92320.75;;;11.65;100.00
17873;BME280;36318;42.620;23.338;2023-04-03T08:32:45;92316.84;;;11.16;100.00
17873;BME280;36318;42.620;23.338;2023-04-03T08:35:11;92304.84;;;11.50;100.00
17873;BME280;36318;42.620;23.338;2023-04-03T08:37:38;92295.38;;;11.76;100.00
17873;BME280;36318;42.620;23.338;2023-04-03T08:40:05;92301.88;;;12.16;100.00
17873;BME280;36318;42.620;23.338;2023-04-03T08:42:38;92303.59;;;12.33;100.00
17873;BME280;36318;42.620;23.338;2023-04-03T08:45:07;92299.97;;;12.26;100.00
17873;BME280;36318;42.620;23.338;2023-04-03T08:47:38;92296.22;;;12.46;100.00
17873;BME280;36318;42.620;23.338;2023-04-03T08:50:05;92301.38;;;12.38;100.00
17873;BME280;36318;42.620;23.338;2023-04-03T08:52:34;92294.81;;;12.34;100.00
17873;BME280;36318;42.620;23.338;2023-04-03T08:55:03;92290.22;;;12.28;100.00
17873;BME280;36318;42.620;23.338;2023-04-03T08:57:33;92285.31;;;12.50;100.00
17873;BME280;36318;42.620;23.338;2023-04-03T09:00:05;92277.13;;;12.71;100.00
17873;BME280;36318;42.620;23.338;2023-04-03T09:02:34;92280.81;;;12.60;100.00
17873;BME280;36318;42.620;23.338;2023-04-03T09:05:06;92288.41;;;12.46;100.00
17873;BME280;36318;42.620;23.338;2023-04-03T09:07:38;92282.28;;;12.29;100.00
17873;BME280;36318;42.620;23.338;2023-04-03T09:10:07;92286.25;;;12.16;100.00
17873;BME280;36318;42.620;23.338;2023-04-03T09:12:36;92274.97;;;12.07;100.00
17873;BME280;36318;42.620;23.338;2023-04-03T09:15:08;92269.25;;;12.04;96.77
17873;BME280;36318;42.620;23.338;2023-04-03T09:17:39;92273.09;;;12.17;91.15
17873;BME280;36318;42.620;23.338;2023-04-03T09:20:15;92275.78;;;12.33;90.58
17873;BME280;36318;42.620;23.338;2023-04-03T09:22:44;92262.72;;;12.25;86.11
17873;BME280;36318;42.620;23.338;2023-04-03T09:25:11;92268.03;;;12.16;81.85
17873;BME280;36318;42.620;23.338;2023-04-03T09:27:39;92262.06;;;12.23;83.39
17873;BME280;36318;42.620;23.338;2023-04-03T09:30:08;92262.13;;;12.31;80.53
17873;BME280;36318;42.620;23.338;2023-04-03T09:32:38;92254.97;;;12.33;78.86
17873;BME280;36318;42.620;23.338;2023-04-03T09:35:10;92259.13;;;12.18;77.65
17873;BME280;36318;42.620;23.338;2023-04-03T09:37:43;92257.84;;;11.96;79.68
17873;BME280;36318;42.620;23.338;2023-04-03T09:40:30;92258.06;;;12.11;80.77
17873;BME280;36318;42.620;23.338;2023-04-03T09:42:57;92256.41;;;12.28;79.54
17873;BME280;36318;42.620;23.338;2023-04-03T09:45:26;92249.97;;;12.40;77.76
17873;BME280;36318;42.620;23.338;2023-04-03T09:48:03;92242.44;;;12.29;77.35
17873;BME280;36318;42.620;23.338;2023-04-03T09:50:32;92240.53;;;12.39;78.32
17873;BME280;36318;42.620;23.338;2023-04-03T09:52:58;92236.31;;;12.38;77.50
17873;BME280;36318;42.620;23.338;2023-04-03T09:55:26;92233.22;;;12.42;78.00
17873;BME280;36318;42.620;23.338;2023-04-03T09:57:54;92237.56;;;12.00;76.43
17873;BME280;36318;42.620;23.338;2023-04-03T10:00:22;92239.28;;;11.91;78.34
17873;BME280;36318;42.620;23.338;2023-04-03T10:02:53;92231.47;;;11.91;80.21
17873;BME280;36318;42.620;23.338;2023-04-03T10:05:25;92238.03;;;11.78;82.80
17873;BME280;36318;42.620;23.338;2023-04-03T10:07:52;92241.13;;;11.81;82.21
17873;BME280;36318;42.620;23.338;2023-04-03T10:10:33;92240.59;;;11.95;85.40
17873;BME280;36318;42.620;23.338;2023-04-03T10:13:03;92241.06;;;11.91;85.26
17873;BME280;36318;42.620;23.338;2023-04-03T10:15:30;92239.41;;;11.90;88.95
17873;BME280;36318;42.620;23.338;2023-04-03T10:18:03;92233.38;;;11.89;88.24
17873;BME280;36318;42.620;23.338;2023-04-03T10:20:33;92233.72;;;11.86;82.70
17873;BME280;36318;42.620;23.338;2023-04-03T10:23:05;92230.72;;;11.81;86.66
17873;BME280;36318;42.620;23.338;2023-04-03T10:25:41;92220.03;;;11.84;84.85
17873;BME280;36318;42.620;23.338;2023-04-03T10:28:10;92228.06;;;11.91;86.77
17873;BME280;36318;42.620;23.338;2023-04-03T10:30:42;92225.16;;;11.76;90.34
17873;BME280;36318;42.620;23.338;2023-04-03T10:33:19;92227.78;;;11.76;90.02
17873;BME280;36318;42.620;23.338;2023-04-03T10:35:49;92224.94;;;11.52;92.58
17873;BME280;36318;42.620;23.338;2023-04-03T10:38:20;92223.84;;;11.55;93.72
17873;BME280;36318;42.620;23.338;2023-04-03T10:40:52;92213.31;;;11.38;96.78
17873;BME280;36318;42.620;23.338;2023-04-03T10:43:23;92208.94;;;11.39;95.85
17873;BME280;36318;42.620;23.338;2023-04-03T10:45:56;92203.50;;;11.50;99.20
17873;BME280;36318;42.620;23.338;2023-04-03T10:48:30;92209.16;;;11.46;96.35
17873;BME280;36318;42.620;23.338;2023-04-03T10:51:00;92208.50;;;11.26;97.45
17873;BME280;36318;42.620;23.338;2023-04-03T10:53:34;92209.31;;;11.26;98.29
17873;BME280;36318;42.620;23.338;2023-04-03T10:56:06;92203.53;;;11.15;100.00
17873;BME280;36318;42.620;23.338;2023-04-03T10:58:38;92206.13;;;11.15;100.00
17873;BME280;36318;42.620;23.338;2023-04-03T11:01:06;92208.44;;;11.00;100.00
17873;BME280;36318;42.620;23.338;2023-04-03T11:03:36;92208.00;;;11.05;100.00
17873;BME280;36318;42.620;23.338;2023-04-03T11:06:06;92210.91;;;10.92;100.00
17873;BME280;36318;42.620;23.338;2023-04-03T11:08:34;92209.72;;;10.69;100.00
17873;BME280;36318;42.620;23.338;2023-04-03T11:11:05;92211.13;;;10.63;100.00
17873;BME280;36318;42.620;23.338;2023-04-03T11:13:33;92210.28;;;10.36;100.00
17873;BME280;36318;42.620;23.338;2023-04-03T11:16:00;92208.25;;;10.39;100.00
17873;BME280;36318;42.620;23.338;2023-04-03T11:18:31;92195.50;;;10.18;100.00
17873;BME280;36318;42.620;23.338;2023-04-03T11:21:02;92184.22;;;10.00;100.00
17873;BME280;36318;42.620;23.338;2023-04-03T11:23:31;92185.38;;;9.79;100.00
17873;BME280;36318;42.620;23.338;2023-04-03T11:26:09;92191.25;;;9.81;100.00
17873;BME280;36318;42.620;23.338;2023-04-03T11:28:36;92188.78;;;9.79;100.00
17873;BME280;36318;42.620;23.338;2023-04-03T11:31:07;92195.47;;;9.82;100.00
17873;BME280;36318;42.620;23.338;2023-04-03T11:33:41;92185.25;;;9.71;100.00
17873;BME280;36318;42.620;23.338;2023-04-03T11:36:13;92179.97;;;9.62;100.00
17873;BME280;36318;42.620;23.338;2023-04-03T11:38:46;92171.91;;;9.66;100.00
17873;BME280;36318;42.620;23.338;2023-04-03T11:41:13;92171.41;;;9.62;100.00
17873;BME280;36318;42.620;23.338;2023-04-03T11:43:41;92169.59;;;9.72;100.00
17873;BME280;36318;42.620;23.338;2023-04-03T11:46:08;92164.84;;;9.58;100.00
17873;BME280;36318;42.620;23.338;2023-04-03T11:48:43;92171.94;;;9.56;100.00
17873;BME280;36318;42.620;23.338;2023-04-03T11:53:57;92162.53;;;9.65;100.00
17873;BME280;36318;42.620;23.338;2023-04-03T11:56:44;92159.34;;;9.71;100.00
17873;BME280;36318;42.620;23.338;2023-04-03T11:59:15;92163.78;;;9.41;100.00
17873;BME280;36318;42.620;23.338;2023-04-03T12:01:44;92161.47;;;9.38;100.00
17873;BME280;36318;42.620;23.338;2023-04-03T12:04:12;92170.66;;;9.23;100.00
17873;BME280;36318;42.620;23.338;2023-04-03T12:06:49;92172.69;;;9.00;100.00
17873;BME280;36318;42.620;23.338;2023-04-03T12:09:24;92178.03;;;8.99;100.00
17873;BME280;36318;42.620;23.338;2023-04-03T12:11:52;92168.09;;;8.94;100.00
17873;BME280;36318;42.620;23.338;2023-04-03T12:14:20;92158.53;;;9.05;100.00
17873;BME280;36318;42.620;23.338;2023-04-03T12:16:48;92156.63;;;9.16;100.00
17873;BME280;36318;42.620;23.338;2023-04-03T12:19:36;92155.78;;;9.25;100.00
17873;BME280;36318;42.620;23.338;2023-04-03T12:22:13;92142.28;;;9.31;100.00
17873;BME280;36318;42.620;23.338;2023-04-03T12:24:42;92137.81;;;9.24;100.00
17873;BME280;36318;42.620;23.338;2023-04-03T12:27:14;92148.06;;;8.96;100.00
17873;BME280;36318;42.620;23.338;2023-04-03T12:29:43;92139.19;;;8.89;100.00
17873;BME280;36318;42.620;23.338;2023-04-03T12:32:15;92135.25;;;8.66;100.00
17873;BME280;36318;42.620;23.338;2023-04-03T12:34:49;92139.63;;;8.56;100.00
17873;BME280;36318;42.620;23.338;2023-04-03T12:37:23;92138.78;;;8.46;100.00
17873;BME280;36318;42.620;23.338;2023-04-03T12:40:01;92131.31;;;8.43;100.00
17873;BME280;36318;42.620;23.338;2023-04-03T12:42:42;92130.19;;;8.36;100.00
17873;BME280;36318;42.620;23.338;2023-04-03T12:45:16;92108.00;;;8.33;100.00
17873;BME280;36318;42.620;23.338;2023-04-03T12:47:45;92115.09;;;8.31;100.00
17873;BME280;36318;42.620;23.338;2023-04-03T12:50:18;92105.41;;;8.33;100.00
17873;BME280;36318;42.620;23.338;2023-04-03T12:52:47;92111.94;;;8.28;100.00
17873;BME280;36318;42.620;23.338;2023-04-03T12:55:18;92112.91;;;8.27;100.00
17873;BME280;36318;42.620;23.338;2023-04-03T12:57:45;92101.03;;;8.24;100.00
17873;BME280;36318;42.620;23.338;2023-04-03T13:00:18;92102.78;;;8.14;100.00
17873;BME280;36318;42.620;23.338;2023-04-03T13:02:45;92097.94;;;8.30;100.00